createdAt,value
2023-03-12T00:04:41.693Z,5.18
2023-03-12T00:09:45.749Z,5.00
2023-03-12T00:14:49.883Z,6.28
2023-03-12T00:19:53.338Z,5.40
2023-03-12T00:24:57.723Z,5.43
2023-03-12T00:30:02.045Z,5.93
2023-03-12T00:35:07.092Z,6.28
2023-03-12T00:40:11.492Z,5.75
2023-03-12T00:45:16.093Z,5.65
2023-03-12T00:50:18.988Z,6.20
2023-03-12T00:55:21.834Z,6.25
2023-03-12T01:00:26.376Z,10.18
2023-03-12T01:05:29.862Z,10.85
2023-03-12T01:10:32.921Z,10.57
2023-03-12T01:15:37.252Z,10.38
2023-03-12T01:20:41.230Z,11.50
2023-03-12T01:25:44.204Z,10.20
2023-03-12T01:30:48.676Z,9.77
2023-03-12T01:35:52.020Z,10.52
2023-03-12T01:40:54.906Z,8.95
2023-03-12T01:46:22.589Z,8.15
2023-03-12T01:51:28.193Z,8.05
2023-03-12T01:56:34.646Z,8.07
2023-03-12T02:01:39.627Z,8.05
2023-03-12T02:06:49.330Z,8.30
2023-03-12T02:11:52.451Z,7.63
2023-03-12T02:16:57.841Z,7.05
2023-03-12T02:22:00.992Z,7.47
2023-03-12T02:27:06.804Z,8.30
2023-03-12T02:32:17.112Z,8.93
2023-03-12T02:37:20.939Z,8.00
2023-03-12T02:42:25.656Z,6.32
2023-03-12T02:47:28.827Z,9.82
2023-03-12T02:52:35.561Z,7.50
2023-03-12T02:57:40.424Z,6.68
2023-03-12T03:02:47.211Z,6.57
2023-03-12T03:07:50.402Z,7.18
2023-03-12T03:12:54.650Z,8.07
2023-03-12T03:17:58.374Z,8.75
2023-03-12T03:23:01.491Z,7.68
2023-03-12T03:28:06.059Z,7.90
2023-03-12T03:33:08.838Z,7.57
2023-03-12T03:38:11.729Z,7.32
2023-03-12T03:43:16.172Z,7.88
2023-03-12T03:48:19.762Z,7.93
2023-03-12T03:53:22.665Z,7.43
2023-03-12T03:58:27.147Z,7.40
2023-03-12T04:03:30.730Z,6.97
2023-03-12T04:08:35.490Z,7.07
2023-03-12T04:13:40.425Z,8.40
2023-03-12T04:18:44.567Z,7.15
2023-03-12T04:23:48.003Z,7.10
2023-03-12T04:28:52.613Z,6.97
2023-03-12T04:33:55.722Z,6.93
2023-03-12T04:39:00.310Z,7.18
2023-03-12T04:44:11.536Z,6.57
2023-03-12T04:49:15.890Z,6.47
2023-03-12T04:54:20.981Z,6.65
2023-03-12T04:59:25.716Z,6.18
2023-03-12T05:04:31.874Z,6.50
2023-03-12T05:09:36.179Z,5.72
2023-03-12T05:14:40.641Z,5.72
2023-03-12T05:19:44.623Z,4.90
2023-03-12T05:24:47.679Z,5.05
2023-03-12T05:29:52.017Z,5.30
2023-03-12T05:34:56.543Z,5.35
2023-03-12T05:40:00.644Z,6.20
2023-03-12T05:45:06.120Z,6.50
2023-03-12T05:50:11.498Z,6.90
2023-03-12T05:55:14.718Z,5.78
2023-03-12T06:00:20.993Z,6.10
2023-03-12T06:05:31.697Z,6.45
2023-03-12T06:10:35.311Z,6.85
2023-03-12T06:15:39.554Z,6.57
2023-03-12T06:20:43.792Z,7.00
2023-03-12T06:25:47.184Z,7.25
2023-03-12T06:30:54.024Z,7.20
2023-03-12T06:35:57.690Z,7.43
2023-03-12T06:41:02.195Z,8.60
2023-03-12T06:46:08.109Z,8.43
2023-03-12T06:51:12.370Z,17.45
2023-03-12T06:56:15.501Z,9.18
2023-03-12T07:01:19.713Z,5.93
2023-03-12T07:06:23.996Z,6.82
2023-03-12T07:11:26.766Z,6.15
2023-03-12T07:16:31.421Z,5.55
2023-03-12T07:21:34.324Z,6.70
2023-03-12T07:26:37.253Z,6.00
2023-03-12T07:31:41.489Z,6.20
2023-03-12T07:36:44.432Z,6.35
2023-03-12T07:41:47.253Z,5.50
2023-03-12T07:46:51.753Z,6.03
2023-03-12T07:51:55.131Z,6.63
2023-03-12T07:56:58.068Z,6.18
2023-03-12T08:02:02.501Z,6.35
2023-03-12T08:07:08.006Z,5.93
2023-03-12T08:12:12.301Z,5.93
2023-03-12T08:17:16.586Z,5.15
2023-03-12T08:22:19.412Z,5.07
2023-03-12T08:27:22.238Z,5.53
2023-03-12T08:32:26.697Z,5.20
2023-03-12T08:37:30.303Z,4.82
2023-03-12T08:42:33.244Z,5.30
2023-03-12T08:47:37.437Z,5.13
2023-03-12T08:52:40.517Z,5.88
2023-03-12T08:57:43.382Z,5.45
2023-03-12T09:02:47.924Z,5.55
2023-03-12T09:07:50.700Z,4.95
2023-03-12T09:12:53.443Z,6.50
2023-03-12T09:17:57.817Z,6.22
2023-03-12T09:23:00.594Z,5.75
2023-03-12T09:28:03.452Z,6.30
2023-03-12T09:33:07.940Z,6.43
2023-03-12T09:38:14.739Z,6.40
2023-03-12T09:43:26.146Z,6.68
2023-03-12T09:48:34.618Z,4.50
2023-03-12T09:53:46.956Z,4.25
2023-03-12T09:58:54.528Z,2.78
2023-03-12T10:04:24.431Z,3.45
2023-03-12T10:09:40.769Z,2.92
2023-03-12T10:14:54.502Z,3.35
2023-03-12T10:20:18.576Z,4.03
2023-03-12T10:25:28.156Z,4.22
2023-03-12T10:30:33.117Z,3.00
2023-03-12T10:35:37.552Z,4.50
2023-03-12T10:40:41.960Z,4.68
2023-03-12T10:45:53.361Z,5.55
2023-03-12T10:51:06.115Z,6.05
2023-03-12T10:56:10.778Z,6.93
2023-03-12T11:01:21.326Z,4.78
2023-03-12T11:06:28.379Z,7.25
2023-03-12T11:11:38.540Z,8.02
2023-03-12T11:16:41.482Z,9.27
2023-03-12T11:21:56.844Z,8.98
2023-03-12T11:27:06.542Z,9.13
2023-03-12T11:32:17.927Z,9.82
2023-03-12T11:37:31.729Z,13.73
2023-03-12T11:42:52.058Z,11.88
2023-03-12T11:48:04.547Z,8.75
2023-03-12T11:53:31.389Z,10.02
2023-03-12T11:58:51.065Z,7.43
2023-03-12T12:04:09.841Z,7.88
2023-03-12T12:09:26.499Z,7.65
2023-03-12T12:14:49.640Z,6.22
2023-03-12T12:20:09.210Z,5.63
2023-03-12T12:25:30.072Z,8.00
2023-03-12T12:30:49.364Z,7.50
2023-03-12T12:35:52.389Z,8.00
2023-03-12T12:41:02.075Z,8.13
2023-03-12T12:46:07.524Z,6.18
2023-03-12T12:51:11.639Z,6.78
2023-03-12T12:56:23.899Z,8.20
2023-03-12T13:01:28.100Z,7.63
2023-03-12T13:06:58.513Z,8.02
2023-03-12T13:12:08.549Z,7.50
2023-03-12T13:17:24.239Z,8.35
2023-03-12T13:22:59.345Z,9.95
2023-03-12T13:28:30.317Z,9.02
2023-03-12T13:33:45.126Z,10.00
2023-03-12T13:38:56.853Z,10.20
2023-03-12T13:44:01.425Z,9.73
2023-03-12T13:49:10.985Z,9.77
2023-03-12T13:54:19.597Z,9.52
2023-03-12T13:59:25.786Z,11.32
2023-03-12T14:04:35.130Z,13.20
2023-03-12T14:09:45.438Z,14.40
2023-03-12T14:15:22.047Z,15.45
2023-03-12T14:20:25.808Z,18.50
2023-03-12T14:25:35.161Z,14.93
2023-03-12T14:30:49.642Z,16.80
2023-03-12T14:35:57.230Z,18.92
2023-03-12T14:41:05.725Z,19.98
2023-03-12T14:46:16.710Z,19.30
2023-03-12T14:51:24.924Z,20.63
2023-03-12T14:56:30.696Z,19.85
2023-03-12T15:01:39.402Z,22.10
2023-03-12T15:06:46.946Z,19.83
2023-03-12T15:11:55.562Z,13.88
2023-03-12T15:17:00.740Z,20.30
2023-03-12T15:22:05.140Z,18.00
2023-03-12T15:27:31.483Z,20.23
2023-03-12T15:32:35.684Z,20.48
2023-03-12T15:37:40.918Z,23.58
2023-03-12T15:42:47.086Z,25.38
2023-03-12T15:47:53.521Z,24.98
2023-03-12T15:53:02.196Z,27.42
2023-03-12T15:58:26.404Z,22.08
2023-03-12T16:03:30.517Z,24.08
2023-03-12T16:08:39.174Z,25.27
2023-03-12T16:13:43.599Z,23.45
2023-03-12T16:18:47.780Z,24.63
2023-03-12T16:23:50.546Z,27.35
2023-03-12T16:28:53.295Z,24.40
2023-03-12T16:33:58.081Z,22.88
2023-03-12T16:39:00.817Z,21.75
2023-03-12T16:44:04.294Z,23.25
2023-03-12T16:49:12.748Z,20.48
2023-03-12T16:54:15.518Z,21.48
2023-03-12T16:59:25.869Z,21.10
2023-03-12T17:04:30.075Z,20.50
2023-03-12T17:09:32.909Z,20.75
2023-03-12T17:14:35.837Z,20.00
2023-03-12T17:19:39.964Z,18.55
2023-03-12T17:24:42.780Z,17.10
2023-03-12T17:29:45.487Z,15.00
2023-03-12T17:34:55.825Z,12.60
2023-03-12T17:40:01.486Z,12.98
2023-03-12T17:45:05.396Z,11.75
2023-03-12T17:50:10.965Z,13.82
2023-03-12T17:55:13.811Z,11.52
2023-03-12T18:00:17.657Z,12.88
2023-03-12T18:05:21.788Z,11.63
2023-03-12T18:10:24.526Z,10.05
2023-03-12T18:15:27.305Z,11.48
2023-03-12T18:20:38.514Z,11.15
2023-03-12T18:25:42.777Z,10.88
2023-03-12T18:30:46.702Z,11.07
2023-03-12T18:35:53.186Z,11.88
2023-03-12T18:41:04.539Z,11.07
2023-03-12T18:46:08.522Z,12.07
2023-03-12T18:51:12.692Z,12.88
2023-03-12T18:56:15.651Z,14.20
2023-03-12T19:01:18.538Z,12.52
2023-03-12T19:06:22.717Z,13.02
2023-03-12T19:11:26.391Z,13.73
2023-03-12T19:16:29.210Z,12.43
2023-03-12T19:21:33.440Z,14.45
2023-03-12T19:26:36.350Z,14.77
2023-03-12T19:31:39.186Z,15.55
2023-03-12T19:36:43.342Z,15.25
2023-03-12T19:41:46.204Z,16.65
2023-03-12T19:46:49.012Z,15.70
2023-03-12T19:51:53.111Z,13.18
2023-03-12T19:56:55.871Z,14.00
2023-03-12T20:02:00.764Z,12.02
2023-03-12T20:07:04.925Z,12.05
2023-03-12T20:12:08.041Z,13.48
2023-03-12T20:17:12.087Z,12.55
2023-03-12T20:22:16.407Z,10.20
2023-03-12T20:27:19.307Z,6.95
2023-03-12T20:32:22.131Z,7.47
2023-03-12T20:37:26.254Z,5.25
2023-03-12T20:42:29.047Z,5.72
2023-03-12T20:47:34.573Z,5.28
2023-03-12T20:52:38.925Z,6.70
2023-03-12T20:57:41.665Z,6.15
2023-03-12T21:02:44.524Z,5.63
2023-03-12T21:07:48.713Z,6.15
2023-03-12T21:12:51.492Z,5.65
2023-03-12T21:17:54.275Z,3.38
2023-03-12T21:22:58.695Z,4.80
2023-03-12T21:28:01.866Z,4.35
2023-03-12T21:33:04.777Z,5.63
2023-03-12T21:38:08.960Z,5.65
2023-03-12T21:43:11.714Z,5.00
2023-03-12T21:48:14.562Z,6.13
2023-03-12T21:53:23.711Z,3.78
2023-03-12T21:58:28.647Z,5.75
2023-03-12T22:03:31.467Z,4.75
2023-03-12T22:08:36.186Z,4.40
2023-03-12T22:13:39.177Z,5.45
2023-03-12T22:18:43.653Z,3.70
2023-03-12T22:23:50.941Z,3.97
2023-03-12T22:28:55.567Z,4.78
2023-03-12T22:33:58.876Z,4.15
2023-03-12T22:39:03.060Z,5.47
2023-03-12T22:44:07.458Z,3.97
2023-03-12T22:49:10.226Z,5.47
2023-03-12T22:54:14.306Z,4.43
2023-03-12T22:59:17.069Z,5.13
2023-03-12T23:04:19.886Z,5.03
2023-03-12T23:09:24.087Z,6.07
2023-03-12T23:14:26.874Z,5.45
2023-03-12T23:19:33.005Z,4.20
2023-03-12T23:24:37.207Z,4.00
2023-03-12T23:29:40.025Z,4.28
2023-03-12T23:34:42.796Z,4.28
2023-03-12T23:39:54.481Z,4.32
2023-03-12T23:44:57.904Z,4.30
2023-03-12T23:50:00.698Z,4.40
2023-03-12T23:55:05.353Z,3.75
